createdAt,value
2024-02-28T00:02:24.619Z,5.10
2024-02-28T00:04:51.694Z,4.90
2024-02-28T00:07:19.936Z,4.97
2024-02-28T00:09:47.075Z,5.20
2024-02-28T00:12:14.153Z,4.67
2024-02-28T00:14:41.324Z,4.87
2024-02-28T00:17:08.873Z,5.80
2024-02-28T00:19:36.090Z,5.10
2024-02-28T00:22:03.243Z,4.67
2024-02-28T00:24:31.045Z,4.00
2024-02-28T00:26:58.022Z,4.47
2024-02-28T00:29:25.127Z,4.47
2024-02-28T00:31:52.167Z,5.03
2024-02-28T00:34:19.333Z,4.07
2024-02-28T00:36:55.105Z,4.77
2024-02-28T00:39:23.829Z,4.45
2024-02-28T00:41:50.826Z,5.13
2024-02-28T00:44:17.923Z,4.67
2024-02-28T00:46:45.571Z,5.53
2024-02-28T00:49:12.545Z,5.27
2024-02-28T00:51:39.693Z,5.17
2024-02-28T00:54:06.905Z,5.00
2024-02-28T00:56:33.940Z,5.00
2024-02-28T00:59:01.013Z,5.40
2024-02-28T01:01:28.182Z,4.93
2024-02-28T01:03:55.384Z,4.27
2024-02-28T01:06:22.367Z,4.80
2024-02-28T01:08:49.352Z,5.20
2024-02-28T01:11:17.323Z,5.27
2024-02-28T01:13:45.503Z,4.93
2024-02-28T01:16:12.536Z,3.43
2024-02-28T01:18:39.690Z,4.20
2024-02-28T01:21:06.789Z,4.40
2024-02-28T01:23:33.975Z,4.37
2024-02-28T01:26:04.402Z,5.30
2024-02-28T01:28:31.428Z,3.87
2024-02-28T01:31:00.020Z,4.60
2024-02-28T01:33:27.277Z,4.63
2024-02-28T01:35:56.279Z,5.27
2024-02-28T01:38:24.699Z,4.23
2024-02-28T01:40:51.647Z,4.93
2024-02-28T01:43:18.887Z,6.03
2024-02-28T01:45:46.001Z,4.90
2024-02-28T01:48:13.747Z,5.37
2024-02-28T01:50:42.517Z,5.40
2024-02-28T01:53:12.537Z,5.23
2024-02-28T01:55:40.015Z,5.10
2024-02-28T01:58:08.201Z,5.43
2024-02-28T02:00:36.228Z,5.23
2024-02-28T02:03:04.408Z,4.97
2024-02-28T02:05:31.876Z,5.17
2024-02-28T02:07:59.942Z,4.80
2024-02-28T02:10:27.649Z,5.53
2024-02-28T02:12:54.852Z,4.70
2024-02-28T02:15:22.257Z,5.37
2024-02-28T02:17:49.857Z,5.60
2024-02-28T02:20:19.360Z,6.40
2024-02-28T02:22:46.540Z,6.03
2024-02-28T02:25:13.569Z,5.60
2024-02-28T02:27:40.665Z,5.60
2024-02-28T02:30:08.183Z,5.90
2024-02-28T02:32:35.485Z,5.87
2024-02-28T02:35:03.222Z,5.30
2024-02-28T02:37:31.164Z,5.20
2024-02-28T02:39:58.284Z,5.70
2024-02-28T02:42:25.386Z,5.90
2024-02-28T02:44:52.390Z,5.37
2024-02-28T02:47:19.401Z,5.87
2024-02-28T02:49:46.408Z,5.30
2024-02-28T02:52:14.318Z,5.13
2024-02-28T02:54:42.195Z,5.77
2024-02-28T02:57:09.225Z,5.20
2024-02-28T02:59:37.296Z,5.83
2024-02-28T03:02:05.125Z,5.47
2024-02-28T03:04:32.190Z,6.07
2024-02-28T03:06:59.213Z,6.37
2024-02-28T03:09:26.374Z,5.57
2024-02-28T03:11:53.344Z,5.67
2024-02-28T03:14:23.243Z,5.53
2024-02-28T03:16:50.399Z,5.93
2024-02-28T03:19:17.737Z,5.67
2024-02-28T03:21:44.826Z,5.70
2024-02-28T03:24:12.099Z,5.90
2024-02-28T03:26:39.275Z,6.13
2024-02-28T03:29:06.421Z,5.70
2024-02-28T03:31:33.636Z,5.97
2024-02-28T03:34:00.922Z,4.57
2024-02-28T03:36:30.011Z,5.90
2024-02-28T03:38:57.054Z,5.50
2024-02-28T03:41:24.095Z,5.90
2024-02-28T03:43:51.164Z,6.13
2024-02-28T03:46:18.177Z,5.37
2024-02-28T03:48:45.406Z,5.90
2024-02-28T03:51:12.495Z,6.07
2024-02-28T03:53:39.642Z,5.53
2024-02-28T03:56:07.038Z,6.20
2024-02-28T03:58:34.070Z,6.23
2024-02-28T04:01:01.291Z,4.97
2024-02-28T04:03:28.361Z,6.80
2024-02-28T04:05:55.352Z,6.13
2024-02-28T04:08:22.435Z,6.20
2024-02-28T04:10:51.438Z,6.13
2024-02-28T04:13:18.898Z,5.47
2024-02-28T04:15:47.254Z,6.67
2024-02-28T04:18:14.627Z,6.00
2024-02-28T04:20:41.780Z,5.63
2024-02-28T04:23:08.946Z,6.23
2024-02-28T04:25:36.989Z,6.67
2024-02-28T04:28:04.298Z,5.50
2024-02-28T04:30:31.551Z,6.13
2024-02-28T04:32:58.809Z,4.33
2024-02-28T04:35:25.897Z,5.43
2024-02-28T04:37:52.970Z,6.13
2024-02-28T04:40:20.046Z,5.93
2024-02-28T04:42:47.116Z,6.53
2024-02-28T04:45:14.494Z,5.90
2024-02-28T04:47:44.597Z,5.67
2024-02-28T04:50:13.613Z,4.10
2024-02-28T04:52:40.683Z,5.47
2024-02-28T04:55:07.962Z,6.07
2024-02-28T04:57:35.148Z,5.90
2024-02-28T05:00:02.232Z,5.23
2024-02-28T05:02:31.429Z,5.47
2024-02-28T05:04:59.976Z,5.77
2024-02-28T05:07:27.137Z,5.90
2024-02-28T05:09:54.146Z,5.13
2024-02-28T05:12:21.275Z,4.97
2024-02-28T05:14:49.481Z,4.60
2024-02-28T05:17:18.680Z,4.93
2024-02-28T05:19:45.787Z,5.17
2024-02-28T05:22:12.943Z,5.87
2024-02-28T05:24:40.089Z,5.30
2024-02-28T05:27:07.310Z,5.43
2024-02-28T05:29:34.445Z,5.23
2024-02-28T05:32:01.553Z,6.17
2024-02-28T05:34:28.535Z,6.20
2024-02-28T05:36:55.879Z,6.50
2024-02-28T05:39:22.990Z,5.67
2024-02-28T05:41:50.211Z,5.10
2024-02-28T05:44:17.301Z,5.77
2024-02-28T05:46:44.343Z,7.37
2024-02-28T05:49:11.380Z,6.13
2024-02-28T05:51:38.607Z,5.43
2024-02-28T05:54:05.775Z,6.13
2024-02-28T05:56:32.871Z,5.40
2024-02-28T05:59:00.965Z,6.70
2024-02-28T06:01:32.646Z,6.07
2024-02-28T06:04:06.463Z,6.13
2024-02-28T06:06:34.160Z,6.37
2024-02-28T06:09:01.707Z,6.27
2024-02-28T06:11:29.734Z,6.73
2024-02-28T06:14:03.831Z,6.60
2024-02-28T06:16:31.690Z,6.67
2024-02-28T06:18:58.817Z,7.27
2024-02-28T06:21:26.796Z,6.80
2024-02-28T06:23:53.826Z,6.77
2024-02-28T06:26:20.998Z,7.07
2024-02-28T06:28:48.217Z,7.35
2024-02-28T06:31:19.052Z,8.13
2024-02-28T06:33:46.225Z,8.10
2024-02-28T06:36:13.340Z,7.80
2024-02-28T06:38:40.457Z,7.63
2024-02-28T06:41:07.445Z,7.28
2024-02-28T06:43:36.710Z,7.65
2024-02-28T06:46:04.138Z,8.00
2024-02-28T06:48:31.728Z,7.72
2024-02-28T06:50:59.177Z,9.10
2024-02-28T06:53:27.602Z,8.55
2024-02-28T06:55:55.031Z,8.40
2024-02-28T06:58:22.117Z,9.45
2024-02-28T07:00:53.061Z,9.45
2024-02-28T07:03:22.059Z,8.80
2024-02-28T07:05:49.270Z,8.20
2024-02-28T07:08:16.316Z,7.78
2024-02-28T07:10:44.959Z,8.48
2024-02-28T07:13:12.122Z,8.60
2024-02-28T07:15:41.384Z,9.27
2024-02-28T07:18:09.095Z,8.88
2024-02-28T07:20:36.250Z,7.95
2024-02-28T07:23:03.420Z,9.20
2024-02-28T07:25:31.639Z,7.82
2024-02-28T07:28:00.641Z,8.50
2024-02-28T07:30:27.868Z,7.85
2024-02-28T07:32:55.994Z,7.95
2024-02-28T07:35:25.071Z,6.82
2024-02-28T07:37:52.239Z,7.03
2024-02-28T07:40:19.916Z,6.22
2024-02-28T07:42:47.130Z,7.40
2024-02-28T07:45:14.819Z,6.93
2024-02-28T07:47:42.068Z,7.10
2024-02-28T07:50:09.490Z,7.25
2024-02-28T07:52:38.457Z,7.57
2024-02-28T07:55:06.664Z,6.93
2024-02-28T07:57:34.626Z,6.60
2024-02-28T08:00:01.906Z,7.07
2024-02-28T08:02:40.513Z,6.82
2024-02-28T08:05:08.895Z,7.15
2024-02-28T08:07:36.064Z,6.80
2024-02-28T08:10:06.546Z,5.93
2024-02-28T08:12:33.663Z,7.00
2024-02-28T08:15:00.762Z,6.22
2024-02-28T08:17:28.177Z,6.20
2024-02-28T08:19:55.724Z,6.05
2024-02-28T08:22:22.784Z,7.13
2024-02-28T08:24:52.842Z,6.03
2024-02-28T08:27:20.632Z,6.20
2024-02-28T08:29:48.504Z,7.05
2024-02-28T08:32:15.591Z,6.63
2024-02-28T08:34:47.498Z,6.60
2024-02-28T08:37:14.930Z,6.10
2024-02-28T08:39:42.089Z,7.00
2024-02-28T08:42:09.309Z,6.85
2024-02-28T08:44:36.339Z,6.07
2024-02-28T08:47:03.357Z,5.97
2024-02-28T08:49:32.011Z,6.75
2024-02-28T08:51:59.005Z,6.78
2024-02-28T08:54:27.120Z,5.57
2024-02-28T08:56:59.973Z,6.35
2024-02-28T08:59:30.561Z,6.88
2024-02-28T09:01:57.568Z,6.70
2024-02-28T09:04:24.742Z,6.85
2024-02-28T09:06:51.884Z,6.68
2024-02-28T09:09:19.113Z,6.70
2024-02-28T09:11:46.300Z,6.70
2024-02-28T09:14:13.518Z,7.30
2024-02-28T09:16:40.729Z,6.70
2024-02-28T09:19:07.794Z,7.60
2024-02-28T09:21:34.921Z,7.68
2024-02-28T09:24:02.796Z,7.28
2024-02-28T09:26:30.051Z,7.20
2024-02-28T09:28:57.012Z,6.90
2024-02-28T09:31:24.047Z,7.20
2024-02-28T09:33:51.351Z,7.72
2024-02-28T09:36:18.460Z,7.25
2024-02-28T09:38:45.457Z,7.75
2024-02-28T09:41:16.489Z,7.55
2024-02-28T09:43:43.593Z,8.48
2024-02-28T09:46:13.378Z,8.30
2024-02-28T09:48:46.294Z,7.82
2024-02-28T09:51:16.136Z,7.75
2024-02-28T09:53:43.186Z,7.70
2024-02-28T09:56:10.910Z,7.32
2024-02-28T09:58:40.216Z,7.70
2024-02-28T10:01:10.784Z,7.97
2024-02-28T10:03:40.927Z,7.93
2024-02-28T10:06:09.578Z,7.28
2024-02-28T10:08:38.367Z,8.02
2024-02-28T10:11:05.642Z,7.90
2024-02-28T10:13:32.687Z,7.05
2024-02-28T10:15:59.832Z,7.05
2024-02-28T10:18:27.638Z,7.93
2024-02-28T10:20:57.807Z,7.65
2024-02-28T10:23:24.961Z,7.07
2024-02-28T10:25:56.822Z,6.70
2024-02-28T10:28:25.314Z,7.18
2024-02-28T10:30:53.436Z,8.05
2024-02-28T10:33:21.159Z,7.13
2024-02-28T10:35:53.247Z,7.57
2024-02-28T10:38:22.157Z,7.72
2024-02-28T10:40:49.902Z,8.05
2024-02-28T10:43:18.934Z,7.68
2024-02-28T10:45:58.492Z,7.35
2024-02-28T10:48:34.678Z,7.93
2024-02-28T10:51:05.377Z,7.80
2024-02-28T10:53:43.568Z,8.05
2024-02-28T10:56:12.918Z,8.68
2024-02-28T10:58:54.153Z,9.10
2024-02-28T11:01:22.925Z,8.48
2024-02-28T11:03:51.889Z,8.13
2024-02-28T11:06:23.607Z,9.02
2024-02-28T11:08:54.713Z,8.02
2024-02-28T11:11:22.506Z,8.75
2024-02-28T11:13:56.226Z,8.52
2024-02-28T11:16:33.389Z,8.90
2024-02-28T11:19:02.565Z,8.35
2024-02-28T11:21:30.389Z,7.88
2024-02-28T11:24:01.626Z,8.77
2024-02-28T11:26:29.249Z,8.30
2024-02-28T11:28:56.925Z,9.23
2024-02-28T11:31:25.565Z,9.00
2024-02-28T11:33:52.844Z,8.50
2024-02-28T11:36:20.899Z,8.45
2024-02-28T11:38:47.997Z,7.95
2024-02-28T11:41:15.047Z,8.40
2024-02-28T11:43:50.390Z,8.57
2024-02-28T11:46:20.087Z,8.25
2024-02-28T11:48:47.615Z,7.90
2024-02-28T11:51:15.133Z,7.60
2024-02-28T11:53:42.207Z,7.43
2024-02-28T11:56:12.027Z,7.80
2024-02-28T11:58:39.023Z,8.02
2024-02-28T12:01:06.278Z,7.88
2024-02-28T12:03:33.428Z,7.75
2024-02-28T12:06:00.986Z,7.93
2024-02-28T12:08:30.466Z,7.13
2024-02-28T12:11:08.567Z,8.18
2024-02-28T12:13:35.798Z,7.55
2024-02-28T12:16:03.065Z,8.30
2024-02-28T12:18:31.140Z,7.93
2024-02-28T12:20:58.398Z,7.47
2024-02-28T12:23:25.514Z,7.15
2024-02-28T12:25:52.653Z,7.30
2024-02-28T12:28:19.915Z,6.75
2024-02-28T12:30:47.072Z,7.60
2024-02-28T12:33:14.427Z,7.32
2024-02-28T12:35:43.588Z,8.05
2024-02-28T12:38:10.926Z,7.40
2024-02-28T12:40:38.219Z,7.43
2024-02-28T12:43:05.489Z,7.05
2024-02-28T12:45:33.055Z,8.30
2024-02-28T12:48:02.486Z,7.50
2024-02-28T12:50:29.840Z,7.00
2024-02-28T12:52:56.856Z,8.27
2024-02-28T12:55:23.977Z,7.47
2024-02-28T12:57:51.825Z,7.70
2024-02-28T13:00:19.569Z,7.30
2024-02-28T13:02:46.840Z,7.80
2024-02-28T13:05:14.726Z,7.25
2024-02-28T13:07:42.510Z,7.63
2024-02-28T13:10:12.962Z,8.00
2024-02-28T13:12:40.289Z,7.38
2024-02-28T13:15:09.221Z,8.48
2024-02-28T13:17:36.603Z,7.28
2024-02-28T13:20:04.676Z,7.55
2024-02-28T13:22:32.241Z,7.15
2024-02-28T13:24:59.661Z,7.40
2024-02-28T13:27:26.854Z,7.13
2024-02-28T13:29:53.939Z,7.28
2024-02-28T13:32:21.254Z,7.53
2024-02-28T13:34:49.996Z,7.22
2024-02-28T13:37:17.460Z,7.13
2024-02-28T13:39:44.999Z,6.63
2024-02-28T13:42:12.042Z,6.30
2024-02-28T13:44:39.469Z,6.30
2024-02-28T13:47:06.901Z,6.22
2024-02-28T13:49:34.010Z,6.75
2024-02-28T13:52:01.261Z,6.15
2024-02-28T13:54:28.659Z,7.55
2024-02-28T13:56:55.760Z,7.10
2024-02-28T13:59:22.805Z,7.15
2024-02-28T14:01:50.522Z,7.00
2024-02-28T14:04:18.148Z,6.65
2024-02-28T14:06:45.338Z,6.85
2024-02-28T14:09:15.251Z,6.20
2024-02-28T14:11:42.510Z,7.07
2024-02-28T14:14:09.639Z,7.45
2024-02-28T14:16:36.618Z,7.57
2024-02-28T14:19:04.173Z,7.43
2024-02-28T14:21:31.377Z,7.07
2024-02-28T14:23:58.441Z,6.30
2024-02-28T14:26:25.771Z,7.07
2024-02-28T14:28:52.906Z,6.28
2024-02-28T14:31:20.632Z,6.93
2024-02-28T14:33:47.681Z,6.85
2024-02-28T14:36:15.458Z,7.32
2024-02-28T14:38:44.706Z,7.20
2024-02-28T14:41:13.042Z,6.82
2024-02-28T14:43:40.339Z,7.88
2024-02-28T14:46:08.568Z,7.20
2024-02-28T14:48:35.673Z,7.22
2024-02-28T14:51:03.777Z,7.35
2024-02-28T14:53:30.862Z,7.93
2024-02-28T14:55:58.152Z,8.25
2024-02-28T14:58:25.137Z,7.90
2024-02-28T15:00:52.376Z,7.43
2024-02-28T15:03:19.967Z,8.18
2024-02-28T15:05:48.116Z,7.97
2024-02-28T15:08:15.259Z,7.65
2024-02-28T15:10:42.295Z,8.88
2024-02-28T15:13:09.558Z,10.00
2024-02-28T15:15:39.196Z,8.98
2024-02-28T15:18:08.396Z,7.97
2024-02-28T15:20:35.456Z,8.25
2024-02-28T15:23:02.573Z,7.82
2024-02-28T15:25:31.648Z,8.07
2024-02-28T15:27:58.742Z,7.68
2024-02-28T15:30:25.837Z,8.15
2024-02-28T15:32:53.503Z,7.85
2024-02-28T15:35:22.149Z,7.65
2024-02-28T15:37:49.341Z,7.30
2024-02-28T15:40:17.702Z,7.07
2024-02-28T15:42:45.606Z,7.00
2024-02-28T15:45:12.568Z,7.00
2024-02-28T15:47:39.597Z,6.57
2024-02-28T15:50:09.056Z,8.50
2024-02-28T15:52:36.461Z,6.75
2024-02-28T15:55:05.240Z,7.03
2024-02-28T15:57:32.347Z,6.72
2024-02-28T15:59:59.547Z,7.57
2024-02-28T16:02:26.685Z,7.15
2024-02-28T16:04:53.735Z,7.07
2024-02-28T16:07:20.883Z,7.38
2024-02-28T16:09:48.051Z,6.93
2024-02-28T16:12:15.809Z,7.15
2024-02-28T16:14:42.878Z,6.68
2024-02-28T16:17:12.803Z,7.07
2024-02-28T16:19:39.824Z,7.25
2024-02-28T16:22:09.021Z,7.13
2024-02-28T16:24:37.382Z,7.55
2024-02-28T16:27:05.183Z,7.10
2024-02-28T16:29:32.769Z,6.25
2024-02-28T16:31:59.774Z,7.40
2024-02-28T16:34:28.048Z,6.40
2024-02-28T16:36:55.068Z,6.63
2024-02-28T16:39:22.493Z,7.22
2024-02-28T16:41:49.787Z,6.75
2024-02-28T16:44:16.886Z,6.78
2024-02-28T16:46:44.130Z,8.13
2024-02-28T16:49:11.236Z,8.10
2024-02-28T16:51:41.560Z,7.45
2024-02-28T16:54:10.709Z,7.22
2024-02-28T16:56:37.826Z,7.05
2024-02-28T16:59:05.297Z,5.97
2024-02-28T17:01:32.412Z,6.63
2024-02-28T17:03:59.644Z,6.40
2024-02-28T17:06:26.806Z,7.63
2024-02-28T17:08:53.893Z,6.97
2024-02-28T17:11:22.445Z,7.22
2024-02-28T17:13:49.878Z,7.75
2024-02-28T17:16:18.655Z,7.70
2024-02-28T17:18:46.408Z,7.05
2024-02-28T17:21:13.798Z,7.47
2024-02-28T17:23:52.760Z,7.47
2024-02-28T17:26:19.776Z,7.22
2024-02-28T17:28:49.569Z,7.68
2024-02-28T17:31:16.833Z,7.75
2024-02-28T17:33:44.471Z,7.07
2024-02-28T17:36:11.519Z,6.85
2024-02-28T17:38:38.740Z,6.55
2024-02-28T17:41:06.921Z,6.60
2024-02-28T17:43:33.964Z,6.93
2024-02-28T17:46:02.407Z,7.13
2024-02-28T17:48:30.929Z,6.45
2024-02-28T17:50:59.424Z,7.10
2024-02-28T17:53:27.714Z,7.75
2024-02-28T17:55:55.526Z,6.38
2024-02-28T17:58:22.653Z,6.97
2024-02-28T18:00:49.784Z,6.63
2024-02-28T18:03:16.891Z,6.47
2024-02-28T18:05:43.959Z,7.10
2024-02-28T18:08:10.978Z,7.43
2024-02-28T18:10:37.970Z,6.90
2024-02-28T18:13:05.292Z,6.72
2024-02-28T18:15:32.377Z,6.30
2024-02-28T18:17:59.445Z,6.15
2024-02-28T18:20:26.418Z,6.80
2024-02-28T18:22:53.361Z,5.55
2024-02-28T18:25:20.482Z,6.05
2024-02-28T18:27:47.655Z,5.28
2024-02-28T18:30:15.035Z,6.23
2024-02-28T18:32:42.115Z,6.18
2024-02-28T18:35:09.565Z,6.20
2024-02-28T18:37:40.944Z,5.93
2024-02-28T18:40:13.577Z,5.90
2024-02-28T18:42:40.919Z,5.88
2024-02-28T18:45:08.421Z,6.33
2024-02-28T18:47:35.529Z,6.10
2024-02-28T18:50:03.022Z,6.25
2024-02-28T18:52:30.342Z,5.30
2024-02-28T18:54:57.477Z,5.38
2024-02-28T18:57:24.589Z,5.38
2024-02-28T18:59:51.830Z,5.75
2024-02-28T19:02:18.982Z,5.60
2024-02-28T19:04:46.414Z,5.53
2024-02-28T19:07:14.066Z,5.17
2024-02-28T19:09:41.507Z,5.70
2024-02-28T19:12:09.017Z,4.70
2024-02-28T19:14:37.517Z,5.00
2024-02-28T19:17:04.951Z,4.50
2024-02-28T19:19:34.883Z,5.20
2024-02-28T19:22:02.458Z,5.73
2024-02-28T19:24:29.496Z,5.10
2024-02-28T19:26:57.178Z,5.33
2024-02-28T19:29:24.282Z,5.27
2024-02-28T19:31:51.306Z,4.97
2024-02-28T19:34:19.776Z,4.60
2024-02-28T19:36:47.033Z,4.97
2024-02-28T19:39:14.230Z,4.97
2024-02-28T19:41:41.253Z,5.67
2024-02-28T19:44:08.446Z,5.30
2024-02-28T19:46:35.707Z,5.47
2024-02-28T19:49:03.259Z,5.43
2024-02-28T19:51:30.461Z,5.70
2024-02-28T19:53:57.557Z,5.37
2024-02-28T19:56:26.928Z,5.93
2024-02-28T19:58:54.092Z,5.23
2024-02-28T20:01:21.299Z,4.53
2024-02-28T20:06:16.397Z,4.50
2024-02-28T20:08:43.520Z,3.73
2024-02-28T20:11:10.649Z,4.60
2024-02-28T20:13:39.475Z,4.50
2024-02-28T20:16:07.281Z,6.10
2024-02-28T20:18:34.342Z,5.17
2024-02-28T20:21:08.392Z,5.07
2024-02-28T20:23:41.205Z,5.83
2024-02-28T20:26:08.442Z,5.70
2024-02-28T20:28:35.590Z,6.77
2024-02-28T20:31:02.711Z,6.90
2024-02-28T20:33:29.725Z,6.40
2024-02-28T20:35:56.762Z,6.50
2024-02-28T20:38:24.572Z,6.20
2024-02-28T20:40:51.737Z,5.80
2024-02-28T20:43:18.780Z,5.50
2024-02-28T20:45:45.938Z,5.03
2024-02-28T20:48:13.015Z,4.73
2024-02-28T20:50:40.297Z,4.73
2024-02-28T20:53:07.386Z,5.27
2024-02-28T20:55:34.470Z,3.67
2024-02-28T20:58:01.641Z,4.60
2024-02-28T21:00:29.333Z,4.57
2024-02-28T21:02:56.548Z,5.47
2024-02-28T21:05:23.599Z,4.43
2024-02-28T21:07:53.447Z,4.90
2024-02-28T21:10:22.746Z,5.27
2024-02-28T21:12:50.633Z,4.70
2024-02-28T21:15:18.005Z,4.63
2024-02-28T21:17:45.253Z,4.83
2024-02-28T21:20:12.330Z,4.63
2024-02-28T21:22:42.009Z,4.80
2024-02-28T21:25:09.530Z,5.27
2024-02-28T21:27:37.071Z,5.17
2024-02-28T21:30:06.586Z,4.87
2024-02-28T21:32:33.724Z,4.53
2024-02-28T21:35:00.939Z,4.03
2024-02-28T21:37:28.681Z,5.20
2024-02-28T21:39:55.810Z,4.53
2024-02-28T21:42:23.023Z,4.77
2024-02-28T21:44:50.058Z,5.30
2024-02-28T21:47:17.144Z,5.00
2024-02-28T21:49:44.478Z,4.77
2024-02-28T21:52:11.898Z,4.93
2024-02-28T21:54:42.961Z,4.43
2024-02-28T21:57:11.503Z,5.27
2024-02-28T21:59:38.748Z,4.87
2024-02-28T22:02:05.807Z,5.07
2024-02-28T22:04:32.888Z,5.90
2024-02-28T22:07:00.167Z,4.67
2024-02-28T22:09:27.357Z,5.00
2024-02-28T22:11:54.453Z,5.43
2024-02-28T22:14:21.468Z,5.13
2024-02-28T22:16:48.793Z,5.23
2024-02-28T22:19:16.383Z,4.63
2024-02-28T22:21:43.641Z,4.80
2024-02-28T22:24:10.713Z,5.17
2024-02-28T22:26:38.054Z,5.83
2024-02-28T22:29:05.116Z,4.57
2024-02-28T22:31:32.431Z,5.13
2024-02-28T22:33:59.458Z,4.93
2024-02-28T22:36:26.632Z,4.20
2024-02-28T22:38:54.012Z,4.80
2024-02-28T22:41:24.979Z,4.50
2024-02-28T22:43:52.347Z,4.67
2024-02-28T22:46:19.674Z,5.13
2024-02-28T22:48:46.901Z,4.93
2024-02-28T22:51:14.330Z,4.77
2024-02-28T22:53:41.661Z,5.10
2024-02-28T22:56:09.054Z,5.00
2024-02-28T22:58:36.035Z,5.10
2024-02-28T23:01:04.413Z,5.33
2024-02-28T23:03:31.624Z,5.30
2024-02-28T23:06:00.943Z,5.00
2024-02-28T23:08:28.159Z,5.00
2024-02-28T23:10:57.559Z,5.37
2024-02-28T23:13:24.811Z,5.50
2024-02-28T23:15:52.298Z,4.77
2024-02-28T23:18:19.493Z,6.57
2024-02-28T23:20:47.194Z,5.80
2024-02-28T23:23:14.492Z,5.20
2024-02-28T23:25:42.350Z,5.00
2024-02-28T23:28:09.867Z,5.47
2024-02-28T23:30:37.417Z,5.03
2024-02-28T23:33:07.300Z,5.20
2024-02-28T23:35:39.004Z,5.13
2024-02-28T23:38:09.063Z,4.90
2024-02-28T23:40:36.260Z,5.00
2024-02-28T23:43:04.607Z,4.60
2024-02-28T23:45:31.913Z,4.83
2024-02-28T23:47:58.997Z,4.87
2024-02-28T23:50:26.121Z,4.73
2024-02-28T23:52:53.088Z,5.03
2024-02-28T23:55:20.513Z,4.53
2024-02-28T23:57:47.832Z,5.30
